CheckWX is a tool to help pilots better visualize weather data.  It is not intended as a substitute for an official pre-flight weather briefing.

21:06:30 UTC

EEPU METAR
Pärnu Airport
Pärnu, Estonia
Current

7 hours ago

EEPU 231350Z 26010KT 8000 OVC006 02/02 Q1030
Observed
Feb-23 @ 13:50 UTC
Wind
  • 260° at 10 KTS
Visibility
7,998 meters
Flight Rules
IFR
Cloud Levels
  • Overcast at 600' AGL
Temperature
C / 36°F
Dewpoint
C / 36°F
Humidity
100%
Altimeter
30.41" Hg
Pressure
1029.91 hPa
Previous

8 hours ago

EEPU 231250Z 25008KT 9999 OVC007 01/01 Q1031
Observed
Feb-23 @ 12:50 UTC
Wind
  • 250° at 8 KTS
Visibility
10,000+ meters
Flight Rules
IFR
Cloud Levels
  • Overcast at 700' AGL
Temperature
C / 34°F
Dewpoint
C / 34°F
Humidity
100%
Altimeter
30.44" Hg
Pressure
1030.91 hPa
Previous

9 hours ago

EEPU 231150Z 25008KT 8000 OVC006 01/01 Q1031
Observed
Feb-23 @ 11:50 UTC
Wind
  • 250° at 8 KTS
Visibility
7,998 meters
Flight Rules
IFR
Cloud Levels
  • Overcast at 600' AGL
Temperature
C / 34°F
Dewpoint
C / 34°F
Humidity
100%
Altimeter
30.44" Hg
Pressure
1030.91 hPa